createdAt,value
2022-12-03T00:00:30.114Z,40.63
2022-12-03T00:01:32.488Z,42.42
2022-12-03T00:02:34.895Z,40.65
2022-12-03T00:03:37.340Z,39.72
2022-12-03T00:04:39.797Z,40.58
2022-12-03T00:05:48.524Z,39.55
2022-12-03T00:06:51.321Z,39.72
2022-12-03T00:07:53.728Z,40.03
2022-12-03T00:08:56.005Z,38.55
2022-12-03T00:09:58.385Z,39.95
2022-12-03T00:11:00.575Z,40.28
2022-12-03T00:12:02.801Z,37.83
2022-12-03T00:13:05.385Z,40.35
2022-12-03T00:14:07.771Z,39.65
2022-12-03T00:15:10.758Z,40.38
2022-12-03T00:16:14.609Z,39.03
2022-12-03T00:17:16.797Z,40.83
2022-12-03T00:18:19.336Z,40.33
2022-12-03T00:19:21.505Z,40.17
2022-12-03T00:20:26.159Z,39.53
2022-12-03T00:21:28.346Z,38.47
2022-12-03T00:22:30.554Z,36.88
2022-12-03T00:23:35.939Z,37.65
2022-12-03T00:24:42.404Z,38.53
2022-12-03T00:25:44.749Z,37.92
2022-12-03T00:26:47.046Z,37.40
2022-12-03T00:27:49.342Z,35.95
2022-12-03T00:28:51.570Z,35.03
2022-12-03T00:29:53.938Z,36.88
2022-12-03T00:30:56.336Z,34.67
2022-12-03T00:31:59.210Z,34.05
2022-12-03T00:33:01.346Z,34.83
2022-12-03T00:34:03.694Z,35.33
2022-12-03T00:35:06.464Z,36.85
2022-12-03T00:36:08.946Z,33.63
2022-12-03T00:37:11.103Z,33.53
2022-12-03T00:38:14.081Z,31.33
2022-12-03T00:39:16.259Z,33.90
2022-12-03T00:40:18.449Z,32.88
2022-12-03T00:41:20.638Z,32.42
2022-12-03T00:42:22.994Z,33.88
2022-12-03T00:43:25.358Z,33.85
2022-12-03T00:44:27.553Z,32.83
2022-12-03T00:45:29.965Z,32.78
2022-12-03T00:46:32.597Z,33.35
2022-12-03T00:47:35.061Z,30.45
2022-12-03T00:48:37.494Z,31.48
2022-12-03T00:49:39.707Z,32.00
2022-12-03T00:50:42.051Z,31.20
2022-12-03T00:51:44.471Z,30.80
2022-12-03T00:52:46.623Z,31.58
2022-12-03T00:53:49.178Z,31.50
2022-12-03T00:54:51.847Z,31.90
2022-12-03T00:55:54.325Z,32.80
2022-12-03T00:56:56.695Z,32.75
2022-12-03T00:57:59.293Z,32.03
2022-12-03T00:59:01.469Z,31.55
2022-12-03T01:00:05.904Z,32.03
2022-12-03T01:01:08.123Z,32.03
2022-12-03T01:02:10.376Z,31.70
2022-12-03T01:03:12.850Z,32.13
2022-12-03T01:04:15.045Z,32.63
2022-12-03T01:05:18.043Z,32.63
2022-12-03T01:06:20.299Z,32.60
2022-12-03T01:07:22.519Z,31.52
2022-12-03T01:08:24.738Z,30.50
2022-12-03T01:09:27.095Z,32.70
2022-12-03T01:10:29.472Z,30.85
2022-12-03T01:11:37.487Z,32.20
2022-12-03T01:12:39.986Z,32.15
2022-12-03T01:13:42.326Z,32.72
2022-12-03T01:14:46.389Z,31.27
2022-12-03T01:15:48.960Z,32.80
2022-12-03T01:16:51.224Z,32.30
2022-12-03T01:17:54.326Z,33.90
2022-12-03T01:18:56.532Z,33.55
2022-12-03T01:20:00.601Z,35.88
2022-12-03T01:21:03.127Z,35.88
2022-12-03T01:22:05.288Z,36.83
2022-12-03T01:23:09.295Z,36.17
2022-12-03T01:24:12.294Z,35.83
2022-12-03T01:25:14.937Z,36.58
2022-12-03T01:26:17.099Z,36.45
2022-12-03T01:27:19.376Z,38.05
2022-12-03T01:28:21.811Z,37.08
2022-12-03T01:29:24.633Z,38.38
2022-12-03T01:30:26.977Z,37.60
2022-12-03T01:31:47.914Z,37.58
2022-12-03T01:33:52.096Z,37.35
2022-12-03T01:34:55.881Z,36.97
2022-12-03T01:35:58.549Z,38.92
2022-12-03T01:37:00.929Z,39.55
2022-12-03T01:38:03.081Z,39.78
2022-12-03T01:39:05.488Z,41.65
2022-12-03T01:40:11.636Z,41.03
2022-12-03T01:41:14.312Z,42.15
2022-12-03T01:42:20.078Z,43.60
2022-12-03T01:43:22.450Z,41.97
2022-12-03T01:44:31.388Z,41.47
2022-12-03T01:45:33.842Z,41.50
2022-12-03T01:46:41.344Z,41.78
2022-12-03T01:47:43.755Z,41.75
2022-12-03T01:48:47.517Z,42.90
2022-12-03T01:49:59.108Z,41.15
2022-12-03T01:51:01.829Z,40.88
2022-12-03T01:52:04.034Z,45.03
2022-12-03T01:53:06.206Z,43.53
2022-12-03T01:54:17.060Z,43.15
2022-12-03T01:55:24.068Z,43.63
2022-12-03T01:56:27.050Z,44.47
2022-12-03T01:57:41.262Z,44.45
2022-12-03T01:58:45.824Z,45.70
2022-12-03T01:59:48.632Z,44.28
2022-12-03T02:00:51.226Z,44.42
2022-12-03T02:01:53.676Z,43.47
2022-12-03T02:02:58.655Z,43.75
2022-12-03T02:04:01.044Z,43.28
2022-12-03T02:05:20.942Z,45.47
2022-12-03T02:06:26.195Z,43.53
2022-12-03T02:07:33.446Z,44.90
2022-12-03T02:08:39.140Z,43.13
2022-12-03T02:09:41.604Z,43.85
2022-12-03T02:10:43.971Z,44.33
2022-12-03T02:11:50.622Z,43.83
2022-12-03T02:13:03.411Z,46.45
2022-12-03T02:14:09.397Z,45.83
2022-12-03T02:15:12.921Z,45.05
2022-12-03T02:16:15.295Z,45.00
2022-12-03T02:17:19.206Z,45.35
2022-12-03T02:18:21.711Z,43.38
2022-12-03T02:19:29.763Z,45.55
2022-12-03T02:20:37.253Z,42.80
2022-12-03T02:22:03.165Z,45.03
2022-12-03T02:23:15.640Z,42.65
2022-12-03T02:24:32.999Z,43.50
2022-12-03T02:25:36.980Z,44.97
2022-12-03T02:26:39.290Z,44.50
2022-12-03T02:27:42.092Z,45.67
2022-12-03T02:28:44.685Z,44.45
2022-12-03T02:29:46.856Z,44.00
2022-12-03T02:30:49.229Z,47.83
2022-12-03T02:31:51.563Z,47.33
2022-12-03T02:32:55.585Z,44.80
2022-12-03T02:33:57.850Z,44.95
2022-12-03T02:35:00.252Z,45.45
2022-12-03T02:36:04.146Z,44.47
2022-12-03T02:37:09.006Z,47.28
2022-12-03T02:38:24.771Z,45.08
2022-12-03T02:39:27.688Z,45.60
2022-12-03T02:40:33.124Z,45.13
2022-12-03T02:41:53.766Z,46.15
2022-12-03T02:42:58.778Z,45.05
2022-12-03T02:44:01.126Z,44.97
2022-12-03T02:45:17.586Z,45.90
2022-12-03T02:46:20.142Z,44.15
2022-12-03T02:47:23.665Z,45.92
2022-12-03T02:48:29.975Z,44.90
2022-12-03T02:49:32.459Z,44.90
2022-12-03T02:50:41.483Z,46.05
2022-12-03T02:51:43.717Z,46.00
2022-12-03T02:52:47.540Z,45.50
2022-12-03T02:53:52.132Z,46.58
2022-12-03T02:54:54.878Z,42.88
2022-12-03T02:55:59.485Z,47.20
2022-12-03T02:57:02.233Z,44.30
2022-12-03T02:58:05.253Z,45.50
2022-12-03T02:59:07.455Z,47.97
2022-12-03T03:00:11.163Z,44.75
2022-12-03T03:01:15.597Z,45.55
2022-12-03T03:02:18.070Z,45.15
2022-12-03T03:03:22.105Z,43.65
2022-12-03T03:04:24.881Z,43.40
2022-12-03T03:05:27.489Z,45.92
2022-12-03T03:06:29.913Z,43.75
2022-12-03T03:07:32.373Z,44.75
2022-12-03T03:08:36.836Z,45.22
2022-12-03T03:09:39.166Z,43.67
2022-12-03T03:10:43.315Z,44.95
2022-12-03T03:11:45.753Z,44.22
2022-12-03T03:12:48.182Z,42.47
2022-12-03T03:13:50.588Z,46.33
2022-12-03T03:14:52.948Z,44.92
2022-12-03T03:15:56.003Z,45.92
2022-12-03T03:16:58.485Z,43.20
2022-12-03T03:18:00.871Z,44.08
2022-12-03T03:19:03.073Z,46.63
2022-12-03T03:20:08.070Z,43.08
2022-12-03T03:21:12.669Z,44.83
2022-12-03T03:22:15.094Z,44.67
2022-12-03T03:23:21.026Z,42.03
2022-12-03T03:24:23.491Z,44.85
2022-12-03T03:25:25.694Z,41.30
2022-12-03T03:26:29.803Z,45.53
2022-12-03T03:27:32.655Z,41.45
2022-12-03T03:28:38.603Z,43.67
2022-12-03T03:29:40.791Z,44.75
2022-12-03T03:30:46.569Z,44.90
2022-12-03T03:31:49.349Z,41.40
2022-12-03T03:32:51.771Z,44.30
2022-12-03T03:33:54.219Z,43.20
2022-12-03T03:34:57.048Z,42.35
2022-12-03T03:36:00.522Z,42.05
2022-12-03T03:37:02.789Z,40.40
2022-12-03T03:38:06.641Z,39.60
2022-12-03T03:39:10.221Z,37.88
2022-12-03T03:40:12.548Z,39.92
2022-12-03T03:41:15.791Z,42.03
2022-12-03T03:42:18.311Z,37.28
2022-12-03T03:43:22.354Z,39.70
2022-12-03T03:44:24.578Z,37.60
2022-12-03T03:45:29.399Z,37.03
2022-12-03T03:46:33.493Z,36.53
2022-12-03T03:47:36.125Z,34.17
2022-12-03T03:48:39.353Z,36.90
2022-12-03T03:49:42.316Z,34.45
2022-12-03T03:50:45.341Z,36.35
2022-12-03T03:51:47.814Z,34.92
2022-12-03T03:52:50.301Z,34.72
2022-12-03T03:53:53.118Z,34.85
2022-12-03T03:54:55.785Z,35.25
2022-12-03T03:55:58.312Z,32.45
2022-12-03T03:57:00.478Z,33.65
2022-12-03T03:58:02.862Z,34.53
2022-12-03T03:59:05.364Z,34.03
2022-12-03T04:00:08.893Z,32.88
2022-12-03T04:01:13.436Z,33.85
2022-12-03T04:02:21.836Z,32.13
2022-12-03T04:03:24.212Z,33.47
2022-12-03T04:04:28.158Z,32.67
2022-12-03T04:05:30.620Z,33.15
2022-12-03T04:06:33.149Z,32.83
2022-12-03T04:07:35.345Z,34.95
2022-12-03T04:08:37.733Z,33.50
2022-12-03T04:09:39.878Z,33.53
2022-12-03T04:11:00.830Z,34.85
2022-12-03T04:12:22.256Z,33.67
2022-12-03T04:13:24.434Z,32.30
2022-12-03T04:14:26.827Z,32.67
2022-12-03T04:15:29.538Z,31.48
2022-12-03T04:16:31.870Z,33.55
2022-12-03T04:17:34.491Z,33.92
2022-12-03T04:18:42.795Z,31.45
2022-12-03T04:19:45.037Z,31.40
2022-12-03T04:20:47.198Z,32.35
2022-12-03T04:22:08.065Z,31.98
2022-12-03T04:23:10.403Z,31.25
2022-12-03T04:24:12.749Z,29.30
2022-12-03T04:25:33.610Z,29.48
2022-12-03T04:26:54.839Z,30.73
2022-12-03T04:28:15.761Z,28.77
2022-12-03T04:29:18.451Z,28.08
2022-12-03T04:30:20.597Z,28.70
2022-12-03T04:31:41.273Z,30.65
2022-12-03T04:34:23.495Z,27.88
2022-12-03T04:35:44.045Z,30.77
2022-12-03T04:36:47.228Z,29.35
2022-12-03T04:37:49.552Z,28.48
2022-12-03T04:38:51.903Z,29.75
2022-12-03T04:39:54.273Z,28.65
2022-12-03T04:41:04.092Z,29.10
2022-12-03T04:42:06.950Z,30.88
2022-12-03T04:43:09.320Z,31.58
2022-12-03T04:44:30.491Z,30.48
2022-12-03T04:46:34.961Z,29.38
2022-12-03T04:47:40.051Z,31.50
2022-12-03T04:48:42.349Z,30.77
2022-12-03T04:49:46.693Z,31.65
2022-12-03T04:50:49.497Z,30.65
2022-12-03T04:51:51.625Z,30.63
2022-12-03T04:52:53.799Z,31.35
2022-12-03T04:53:56.140Z,32.65
2022-12-03T04:54:58.587Z,32.47
2022-12-03T04:56:00.922Z,31.17
2022-12-03T04:57:04.077Z,32.70
2022-12-03T04:58:06.799Z,32.60
2022-12-03T04:59:14.220Z,32.13
2022-12-03T05:00:18.458Z,30.02
2022-12-03T05:01:22.976Z,30.85
2022-12-03T05:02:25.258Z,31.42
2022-12-03T05:03:27.455Z,31.40
2022-12-03T05:04:31.569Z,32.03
2022-12-03T05:05:33.744Z,31.02
2022-12-03T05:06:36.092Z,32.53
2022-12-03T05:07:38.580Z,29.92
2022-12-03T05:08:40.770Z,32.22
2022-12-03T05:09:43.127Z,30.95
2022-12-03T05:10:45.254Z,30.55
2022-12-03T05:11:47.847Z,33.08
2022-12-03T05:12:50.172Z,33.38
2022-12-03T05:13:52.521Z,33.90
2022-12-03T05:14:55.165Z,32.45
2022-12-03T05:15:57.563Z,32.25
2022-12-03T05:17:00.069Z,31.48
2022-12-03T05:18:02.458Z,33.90
2022-12-03T05:19:06.676Z,30.83
2022-12-03T05:20:28.306Z,30.95
2022-12-03T05:21:30.673Z,30.42
2022-12-03T05:22:32.837Z,30.08
2022-12-03T05:23:35.395Z,30.38
2022-12-03T05:24:37.559Z,32.13
2022-12-03T05:25:41.309Z,31.15
2022-12-03T05:26:43.476Z,30.80
2022-12-03T05:27:45.625Z,32.20
2022-12-03T05:28:48.209Z,31.55
2022-12-03T05:29:50.422Z,33.40
2022-12-03T05:30:52.885Z,32.85
2022-12-03T05:31:55.058Z,32.40
2022-12-03T05:32:57.270Z,33.25
2022-12-03T05:33:59.837Z,30.02
2022-12-03T05:35:02.269Z,34.15
2022-12-03T05:36:04.558Z,31.98
2022-12-03T05:37:07.059Z,31.98
2022-12-03T05:38:09.356Z,34.03
2022-12-03T05:39:12.675Z,34.33
2022-12-03T05:40:15.745Z,33.63
2022-12-03T05:41:36.717Z,33.83
2022-12-03T05:42:54.437Z,33.92
2022-12-03T05:43:57.308Z,34.47
2022-12-03T05:44:59.487Z,34.47
2022-12-03T05:46:01.975Z,34.00
2022-12-03T05:47:05.368Z,32.13
2022-12-03T05:48:10.999Z,32.35
2022-12-03T05:49:13.356Z,34.28
2022-12-03T05:50:15.934Z,33.60
2022-12-03T05:51:18.286Z,31.67
2022-12-03T05:52:20.451Z,33.97
2022-12-03T05:53:22.802Z,32.30
2022-12-03T05:54:24.966Z,32.95
2022-12-03T05:55:28.028Z,33.45
2022-12-03T05:56:30.429Z,32.63
2022-12-03T05:57:32.673Z,33.30
2022-12-03T05:58:35.029Z,34.20
2022-12-03T05:59:37.414Z,32.78
2022-12-03T06:00:42.855Z,33.28
2022-12-03T06:01:45.678Z,32.35
2022-12-03T06:02:48.427Z,32.08
2022-12-03T06:03:50.925Z,35.33
2022-12-03T06:04:53.647Z,33.03
2022-12-03T06:05:56.069Z,32.00
2022-12-03T06:06:58.407Z,33.90
2022-12-03T06:08:01.446Z,34.60
2022-12-03T06:09:04.289Z,34.58
2022-12-03T06:10:09.173Z,33.58
2022-12-03T06:11:11.339Z,32.97
2022-12-03T06:12:13.508Z,33.65
2022-12-03T06:13:16.703Z,32.00
2022-12-03T06:14:18.854Z,30.77
2022-12-03T06:15:21.190Z,33.67
2022-12-03T06:16:23.564Z,32.25
2022-12-03T06:17:26.453Z,33.17
2022-12-03T06:18:28.822Z,32.15
2022-12-03T06:19:31.195Z,33.20
2022-12-03T06:20:33.369Z,33.17
2022-12-03T06:21:35.546Z,33.03
2022-12-03T06:22:37.907Z,32.17
2022-12-03T06:23:44.941Z,35.00
2022-12-03T06:24:47.281Z,32.95
2022-12-03T06:25:50.474Z,33.17
2022-12-03T06:26:52.685Z,38.33
2022-12-03T06:27:54.866Z,35.63
2022-12-03T06:28:57.433Z,37.08
2022-12-03T06:29:59.746Z,32.10
2022-12-03T06:31:02.374Z,34.35
2022-12-03T06:32:05.226Z,33.40
2022-12-03T06:33:07.423Z,31.85
2022-12-03T06:34:10.023Z,31.23
2022-12-03T06:35:12.836Z,30.75
2022-12-03T06:36:19.891Z,32.00
2022-12-03T06:37:25.063Z,32.05
2022-12-03T06:38:27.407Z,31.60
2022-12-03T06:39:29.888Z,31.80
2022-12-03T06:40:32.328Z,32.83
2022-12-03T06:41:34.817Z,32.65
2022-12-03T06:42:37.055Z,30.98
2022-12-03T06:43:40.366Z,33.45
2022-12-03T06:44:42.561Z,31.98
2022-12-03T06:45:47.888Z,31.30
2022-12-03T06:46:50.459Z,31.95
2022-12-03T06:47:52.703Z,31.55
2022-12-03T06:48:55.289Z,30.27
2022-12-03T06:49:57.480Z,32.08
2022-12-03T06:50:59.921Z,31.70
2022-12-03T06:52:02.142Z,31.50
2022-12-03T06:53:04.506Z,30.98
2022-12-03T06:54:06.990Z,30.23
2022-12-03T06:55:09.864Z,30.60
2022-12-03T06:56:12.069Z,31.30
2022-12-03T06:57:14.286Z,30.15
2022-12-03T06:58:16.685Z,31.05
2022-12-03T06:59:18.864Z,31.20
2022-12-03T07:00:21.677Z,31.00
2022-12-03T07:01:24.083Z,29.58
2022-12-03T07:02:26.481Z,31.25
2022-12-03T07:03:28.703Z,29.20
2022-12-03T07:04:31.146Z,30.00
2022-12-03T07:05:33.624Z,30.25
2022-12-03T07:06:36.140Z,31.42
2022-12-03T07:07:38.506Z,30.85
2022-12-03T07:08:40.998Z,30.45
2022-12-03T07:09:43.567Z,31.05
2022-12-03T07:10:45.755Z,29.80
2022-12-03T07:11:48.095Z,29.52
2022-12-03T07:12:50.275Z,28.95
2022-12-03T07:13:52.879Z,32.95
2022-12-03T07:14:55.439Z,31.85
2022-12-03T07:15:58.249Z,32.97
2022-12-03T07:17:00.651Z,31.55
2022-12-03T07:18:02.861Z,30.02
2022-12-03T07:19:06.538Z,29.33
2022-12-03T07:20:09.189Z,30.75
2022-12-03T07:21:11.550Z,33.05
2022-12-03T07:22:14.072Z,30.77
2022-12-03T07:23:20.719Z,33.53
2022-12-03T07:24:22.884Z,32.03
2022-12-03T07:25:25.092Z,33.80
2022-12-03T07:26:27.647Z,33.92
2022-12-03T07:27:31.273Z,32.13
2022-12-03T07:28:33.457Z,30.85
2022-12-03T07:29:35.644Z,31.67
2022-12-03T07:30:37.820Z,29.15
2022-12-03T07:31:40.291Z,32.03
2022-12-03T07:32:42.755Z,29.83
2022-12-03T07:33:44.974Z,30.90
2022-12-03T07:34:47.389Z,29.45
2022-12-03T07:35:49.636Z,29.25
2022-12-03T07:36:52.327Z,29.73
2022-12-03T07:37:54.925Z,29.13
2022-12-03T07:38:57.274Z,30.05
2022-12-03T07:39:59.494Z,30.02
2022-12-03T07:41:01.694Z,30.30
2022-12-03T07:42:04.609Z,29.02
2022-12-03T07:43:06.774Z,28.65
2022-12-03T07:44:13.983Z,29.08
2022-12-03T07:45:16.724Z,29.35
2022-12-03T07:46:18.983Z,30.63
2022-12-03T07:47:21.204Z,28.15
2022-12-03T07:48:23.759Z,30.33
2022-12-03T07:49:26.931Z,29.15
2022-12-03T07:50:29.172Z,28.10
2022-12-03T07:51:32.488Z,31.17
2022-12-03T07:52:34.753Z,27.63
2022-12-03T07:53:37.576Z,31.23
2022-12-03T07:54:39.973Z,30.52
2022-12-03T07:55:42.205Z,30.92
2022-12-03T07:56:44.566Z,31.25
2022-12-03T07:57:47.008Z,29.42
2022-12-03T07:58:50.513Z,30.25
2022-12-03T07:59:53.104Z,28.88
2022-12-03T08:00:55.477Z,28.63
2022-12-03T08:01:57.844Z,27.55
2022-12-03T08:03:00.084Z,29.50
2022-12-03T08:04:02.435Z,29.38
2022-12-03T08:05:05.393Z,28.70
2022-12-03T08:06:07.872Z,30.33
2022-12-03T08:07:10.054Z,27.48
2022-12-03T08:08:12.307Z,29.00
2022-12-03T08:09:16.352Z,27.73
2022-12-03T08:10:18.967Z,27.92
2022-12-03T08:11:21.426Z,29.23
2022-12-03T08:12:40.039Z,29.65
2022-12-03T08:13:42.678Z,27.48
2022-12-03T08:14:45.066Z,27.73
2022-12-03T08:15:47.220Z,28.40
2022-12-03T08:16:49.653Z,28.17
2022-12-03T08:17:56.007Z,29.08
2022-12-03T08:18:58.157Z,28.85
2022-12-03T08:20:00.745Z,28.80
2022-12-03T08:21:06.373Z,30.38
2022-12-03T08:22:14.191Z,29.23
2022-12-03T08:23:18.602Z,26.52
2022-12-03T08:24:21.518Z,27.50
2022-12-03T08:25:31.456Z,26.30
2022-12-03T08:26:34.477Z,26.85
2022-12-03T08:27:36.648Z,28.02
2022-12-03T08:28:39.137Z,27.38
2022-12-03T08:29:41.310Z,30.80
2022-12-03T08:30:47.040Z,28.77
2022-12-03T08:31:57.816Z,27.80
2022-12-03T08:33:00.229Z,26.73
2022-12-03T08:34:37.864Z,28.08
2022-12-03T08:35:44.379Z,27.65
2022-12-03T08:36:49.742Z,25.25
2022-12-03T08:38:10.158Z,28.90
2022-12-03T08:39:35.881Z,27.00
2022-12-03T08:40:43.716Z,26.95
2022-12-03T08:42:13.888Z,25.70
2022-12-03T08:43:20.949Z,27.17
2022-12-03T08:44:29.722Z,26.02
2022-12-03T08:45:41.104Z,26.88
2022-12-03T08:46:43.373Z,25.85
2022-12-03T08:47:45.799Z,26.20
2022-12-03T08:48:49.405Z,25.98
2022-12-03T08:50:00.296Z,26.67
2022-12-03T08:52:31.442Z,25.35
2022-12-03T08:53:59.722Z,25.20
2022-12-03T08:55:35.125Z,25.73
2022-12-03T08:56:37.462Z,25.58
2022-12-03T08:57:41.316Z,26.35
2022-12-03T08:58:46.401Z,25.77
2022-12-03T08:59:49.095Z,25.80
2022-12-03T09:01:07.152Z,26.80
2022-12-03T09:02:22.391Z,27.42
2022-12-03T09:03:24.799Z,27.83
2022-12-03T09:04:38.818Z,26.95
2022-12-03T09:05:41.316Z,26.25
2022-12-03T09:06:43.539Z,27.05
2022-12-03T09:07:45.784Z,26.80
2022-12-03T09:08:48.340Z,27.55
2022-12-03T09:09:50.735Z,26.33
2022-12-03T09:10:53.104Z,26.73
2022-12-03T09:11:55.397Z,27.27
2022-12-03T09:12:57.538Z,26.10
2022-12-03T09:13:59.906Z,27.00
2022-12-03T09:15:02.280Z,25.85
2022-12-03T09:16:05.203Z,27.35
2022-12-03T09:17:07.453Z,26.20
2022-12-03T09:18:09.929Z,26.00
2022-12-03T09:19:12.120Z,25.23
2022-12-03T09:20:15.219Z,25.83
2022-12-03T09:21:17.796Z,26.15
2022-12-03T09:22:20.079Z,26.63
2022-12-03T09:23:22.262Z,27.15
2022-12-03T09:24:24.735Z,25.05
2022-12-03T09:25:26.923Z,25.48
2022-12-03T09:26:29.962Z,24.15
2022-12-03T09:27:32.179Z,25.77
2022-12-03T09:28:34.524Z,25.98
2022-12-03T09:29:36.884Z,25.23
2022-12-03T09:30:39.065Z,25.63
2022-12-03T09:31:41.388Z,24.88
2022-12-03T09:32:44.090Z,26.23
2022-12-03T09:33:46.381Z,28.45
2022-12-03T09:34:48.748Z,24.92
2022-12-03T09:35:50.908Z,25.33
2022-12-03T09:36:53.132Z,25.52
2022-12-03T09:37:55.758Z,24.02
2022-12-03T09:38:58.609Z,24.83
2022-12-03T09:40:00.956Z,24.77
2022-12-03T09:41:03.420Z,24.20
2022-12-03T09:42:05.915Z,25.05
2022-12-03T09:43:08.350Z,26.13
2022-12-03T09:44:17.432Z,26.08
2022-12-03T09:45:20.489Z,24.52
2022-12-03T09:46:23.725Z,23.38
2022-12-03T09:47:26.891Z,24.73
2022-12-03T09:48:29.314Z,24.95
2022-12-03T09:49:33.727Z,23.80
2022-12-03T09:50:40.721Z,24.33
2022-12-03T09:51:44.421Z,23.63
2022-12-03T09:52:49.989Z,22.25
2022-12-03T09:53:52.309Z,23.23
2022-12-03T09:54:54.871Z,23.25
2022-12-03T09:56:00.933Z,24.80
2022-12-03T09:57:04.205Z,24.23
2022-12-03T09:58:12.287Z,25.70
2022-12-03T09:59:15.441Z,25.75
2022-12-03T10:00:20.608Z,24.58
2022-12-03T10:01:27.903Z,24.83
2022-12-03T10:02:32.240Z,24.00
2022-12-03T10:03:34.459Z,23.88
2022-12-03T10:04:36.906Z,24.27
2022-12-03T10:05:42.594Z,23.30
2022-12-03T10:06:49.194Z,24.45
2022-12-03T10:07:52.412Z,24.38
2022-12-03T10:09:00.000Z,26.08
2022-12-03T10:10:02.224Z,23.60
2022-12-03T10:11:04.903Z,24.30
2022-12-03T10:12:11.755Z,25.15
2022-12-03T10:13:30.013Z,25.42
2022-12-03T10:14:32.303Z,24.95
2022-12-03T10:15:34.796Z,23.25
2022-12-03T10:16:39.803Z,22.08
2022-12-03T10:17:42.457Z,23.13
2022-12-03T10:18:48.635Z,25.42
2022-12-03T10:19:51.334Z,23.25
2022-12-03T10:20:54.145Z,23.48
2022-12-03T10:21:56.356Z,22.10
2022-12-03T10:22:58.565Z,25.08
2022-12-03T10:24:22.503Z,23.48
2022-12-03T10:25:24.736Z,22.92
2022-12-03T10:26:40.458Z,24.35
2022-12-03T10:27:43.381Z,23.35
2022-12-03T10:28:47.545Z,23.38
2022-12-03T10:29:58.676Z,25.35
2022-12-03T10:31:03.442Z,23.58
2022-12-03T10:32:09.191Z,22.30
2022-12-03T10:33:18.857Z,23.35
2022-12-03T10:34:32.511Z,25.52
2022-12-03T10:35:39.752Z,24.50
2022-12-03T10:36:42.236Z,25.92
2022-12-03T10:38:18.510Z,24.92
2022-12-03T10:39:20.907Z,24.05
2022-12-03T10:40:26.644Z,24.02
2022-12-03T10:41:29.447Z,23.63
2022-12-03T10:42:40.234Z,24.73
2022-12-03T10:43:42.617Z,23.38
2022-12-03T10:44:44.996Z,24.33
2022-12-03T10:46:03.738Z,24.42
2022-12-03T10:47:10.686Z,23.83
2022-12-03T10:48:21.848Z,23.88
2022-12-03T10:49:25.433Z,23.38
2022-12-03T10:50:27.827Z,23.88
2022-12-03T10:51:30.551Z,24.67
2022-12-03T10:52:33.653Z,23.33
2022-12-03T10:53:38.574Z,24.17
2022-12-03T10:54:40.966Z,24.40
2022-12-03T10:55:44.945Z,24.20
2022-12-03T10:56:48.600Z,23.85
2022-12-03T10:57:51.634Z,26.02
2022-12-03T10:58:54.665Z,24.13
2022-12-03T10:59:56.887Z,24.02
2022-12-03T11:01:03.600Z,24.65
2022-12-03T11:02:18.837Z,26.42
2022-12-03T11:03:30.286Z,25.70
2022-12-03T11:04:35.066Z,25.33
2022-12-03T11:05:37.405Z,24.98
2022-12-03T11:06:40.176Z,26.27
2022-12-03T11:07:43.562Z,24.75
2022-12-03T11:08:57.527Z,24.83
2022-12-03T11:10:02.678Z,24.23
2022-12-03T11:11:08.301Z,25.70
2022-12-03T11:12:19.585Z,26.80
2022-12-03T11:13:33.925Z,27.20
2022-12-03T11:14:54.546Z,25.58
2022-12-03T11:16:59.422Z,26.20
2022-12-03T11:18:03.608Z,26.13
2022-12-03T11:19:17.823Z,26.65
2022-12-03T11:20:22.753Z,27.17
2022-12-03T11:21:25.592Z,28.20
2022-12-03T11:22:40.673Z,28.35
2022-12-03T11:23:45.854Z,27.38
2022-12-03T11:25:34.041Z,29.58
2022-12-03T11:26:39.292Z,27.20
2022-12-03T11:27:45.006Z,26.55
2022-12-03T11:28:47.549Z,27.13
2022-12-03T11:29:52.544Z,27.92
2022-12-03T11:31:02.392Z,26.65
2022-12-03T11:32:04.623Z,28.48
2022-12-03T11:33:22.429Z,26.90
2022-12-03T11:34:40.710Z,28.00
2022-12-03T11:36:05.888Z,27.73
2022-12-03T11:37:10.779Z,26.95
2022-12-03T11:38:37.487Z,26.83
2022-12-03T11:39:52.568Z,27.50
2022-12-03T11:41:23.688Z,28.17
2022-12-03T11:42:36.968Z,27.65
2022-12-03T11:43:57.401Z,29.73
2022-12-03T11:45:02.934Z,29.08
2022-12-03T11:46:09.365Z,28.52
2022-12-03T11:47:16.076Z,30.67
2022-12-03T11:48:18.757Z,29.83
2022-12-03T11:49:34.798Z,30.40
2022-12-03T11:50:57.364Z,27.98
2022-12-03T11:52:02.423Z,29.60
2022-12-03T11:53:19.396Z,29.42
2022-12-03T11:54:23.228Z,29.58
2022-12-03T11:55:35.569Z,30.60
2022-12-03T11:56:46.314Z,32.08
2022-12-03T11:59:01.726Z,30.10
2022-12-03T12:00:24.042Z,29.35
2022-12-03T12:01:38.595Z,29.38
2022-12-03T12:02:41.551Z,29.13
2022-12-03T12:03:48.970Z,30.48
2022-12-03T12:04:51.306Z,30.08
2022-12-03T12:06:05.668Z,31.88
2022-12-03T12:07:08.008Z,30.05
2022-12-03T12:08:19.575Z,31.58
2022-12-03T12:09:56.249Z,31.85
2022-12-03T12:10:58.934Z,29.45
2022-12-03T12:12:21.088Z,29.35
2022-12-03T12:13:32.243Z,28.98
2022-12-03T12:14:34.455Z,30.15
2022-12-03T12:15:39.801Z,32.45
2022-12-03T12:16:55.341Z,33.17
2022-12-03T12:17:57.698Z,31.60
2022-12-03T12:19:34.035Z,29.55
2022-12-03T12:20:36.910Z,29.20
2022-12-03T12:21:43.649Z,31.83
2022-12-03T12:22:45.986Z,31.23
2022-12-03T12:23:48.176Z,30.10
2022-12-03T12:24:52.826Z,32.47
2022-12-03T12:26:06.523Z,32.42
2022-12-03T12:27:15.102Z,31.40
2022-12-03T12:28:17.238Z,31.23
2022-12-03T12:29:19.614Z,31.38
2022-12-03T12:30:23.249Z,33.25
2022-12-03T12:31:25.642Z,31.23
2022-12-03T12:32:41.857Z,31.17
2022-12-03T12:33:44.009Z,31.00
2022-12-03T12:34:48.758Z,32.08
2022-12-03T12:35:51.689Z,32.50
2022-12-03T12:36:56.579Z,32.80
2022-12-03T12:38:07.933Z,31.83
2022-12-03T12:39:15.294Z,32.10
2022-12-03T12:40:18.697Z,32.40
2022-12-03T12:41:20.906Z,31.27
2022-12-03T12:42:38.358Z,32.70
2022-12-03T12:43:40.989Z,33.25
2022-12-03T12:44:43.123Z,33.25
2022-12-03T12:45:45.733Z,31.88
2022-12-03T12:46:48.880Z,34.03
2022-12-03T12:48:13.185Z,32.63
2022-12-03T12:49:15.664Z,32.25
2022-12-03T12:50:18.752Z,33.45
2022-12-03T12:51:21.051Z,32.70
2022-12-03T12:52:23.644Z,34.33
2022-12-03T12:53:32.574Z,32.83
2022-12-03T12:54:34.743Z,33.72
2022-12-03T12:55:40.216Z,33.03
2022-12-03T12:56:47.591Z,35.83
2022-12-03T12:57:51.709Z,34.88
2022-12-03T12:58:54.879Z,34.83
2022-12-03T12:59:58.334Z,34.08
2022-12-03T13:01:06.580Z,34.65
2022-12-03T13:02:36.075Z,34.38
2022-12-03T13:03:39.657Z,32.28
2022-12-03T13:04:41.798Z,34.47
2022-12-03T13:05:47.649Z,34.88
2022-12-03T13:06:54.072Z,35.17
2022-12-03T13:07:56.919Z,33.95
2022-12-03T13:09:01.376Z,35.13
2022-12-03T13:10:27.304Z,36.33
2022-12-03T13:11:38.698Z,33.60
2022-12-03T13:12:41.350Z,35.10
2022-12-03T13:13:44.504Z,38.75
2022-12-03T13:14:46.980Z,36.80
2022-12-03T13:16:15.451Z,36.85
2022-12-03T13:17:26.071Z,37.42
2022-12-03T13:18:36.878Z,37.05
2022-12-03T13:19:48.373Z,38.33
2022-12-03T13:20:54.609Z,39.55
2022-12-03T13:22:21.342Z,37.90
2022-12-03T13:23:28.744Z,38.60
2022-12-03T13:24:31.387Z,39.03
2022-12-03T13:27:02.961Z,39.20
2022-12-03T13:28:07.208Z,39.30
2022-12-03T13:29:16.760Z,38.70
2022-12-03T13:30:21.001Z,39.03
2022-12-03T13:31:29.607Z,39.42
2022-12-03T13:32:35.899Z,37.70
2022-12-03T13:33:38.838Z,36.53
2022-12-03T13:34:41.067Z,40.33
2022-12-03T13:35:43.360Z,38.55
2022-12-03T13:36:49.450Z,39.13
2022-12-03T13:38:00.256Z,38.53
2022-12-03T13:39:30.010Z,39.33
2022-12-03T13:40:36.487Z,38.00
2022-12-03T13:41:57.232Z,37.72
2022-12-03T13:42:59.720Z,38.60
2022-12-03T13:44:05.584Z,39.90
2022-12-03T13:45:10.656Z,39.80
2022-12-03T13:46:16.598Z,40.30
2022-12-03T13:47:22.580Z,39.47
2022-12-03T13:48:31.228Z,39.15
2022-12-03T13:49:34.707Z,41.53
2022-12-03T13:50:41.900Z,39.30
2022-12-03T13:51:44.314Z,38.38
2022-12-03T13:52:46.933Z,38.88
2022-12-03T13:53:49.394Z,37.85
2022-12-03T13:54:55.027Z,38.60
2022-12-03T13:56:19.761Z,39.38
2022-12-03T13:57:22.875Z,39.70
2022-12-03T13:58:25.053Z,41.15
2022-12-03T13:59:27.466Z,39.50
2022-12-03T14:00:29.634Z,40.50
2022-12-03T14:01:32.503Z,40.45
2022-12-03T14:02:34.731Z,39.92
2022-12-03T14:03:36.973Z,40.28
2022-12-03T14:04:39.648Z,40.90
2022-12-03T14:05:42.004Z,38.80
2022-12-03T14:06:44.393Z,40.25
2022-12-03T14:07:46.725Z,40.47
2022-12-03T14:08:49.281Z,39.00